Time;durP1;ratioP1;P1;durP2;ratioP2;P2;SDS_P1;SDS_P2;PMS_P1;PMS_P2;Temp;Humidity;BMP_temperature;BMP_pressure;BME280_temperature;BME280_humidity;BME280_pressure;Samples;Min_cycle;Max_cycle;Signal;HPM_P1;HPM_P2
2023/05/14 00:01:15;;;;;;;29.13;14.97;;;10.30;77.50;;;;;;6212631;23;20028;-93
2023/05/14 00:03:52;;;;;;;27.60;14.83;;;10.30;77.60;;;;;;6165624;23;20020;-90
2023/05/14 00:06:21;;;;;;;24.77;13.83;;;10.30;77.70;;;;;;6188051;23;20022;-92
2023/05/14 00:09:17;;;;;;;22.23;13.77;;;10.30;77.60;;;;;;6209811;23;20026;-92
2023/05/14 00:11:53;;;;;;;23.00;13.57;;;10.30;78.20;;;;;;6193255;23;20016;-92
2023/05/14 00:14:19;;;;;;;24.93;13.93;;;10.20;77.70;;;;;;6174700;23;20082;-92
2023/05/14 00:17:11;;;;;;;24.60;13.53;;;10.20;77.80;;;;;;6211131;23;20016;-92
2023/05/14 00:19:52;;;;;;;26.80;13.40;;;10.20;77.90;;;;;;6165448;23;20454;-91
2023/05/14 00:22:42;;;;;;;23.87;13.03;;;10.20;77.90;;;;;;6171172;22;20887;-94
2023/05/14 00:25:40;;;;;;;24.07;13.40;;;10.20;78.10;;;;;;6180698;23;20067;-92
2023/05/14 00:32:05;;;;;;;;;;;10.10;78.10;;;;;;6099033;23;20018;-91
2023/05/14 00:34:40;;;;;;;20.00;11.53;;;10.10;78.40;;;;;;6139736;23;20014;-91
2023/05/14 00:37:38;;;;;;;18.90;11.47;;;10.10;78.10;;;;;;6154219;23;20103;-92
2023/05/14 00:40:11;;;;;;;22.50;11.57;;;10.10;78.30;;;;;;6157607;23;20123;-92
2023/05/14 00:43:08;;;;;;;19.40;10.73;;;10.10;78.10;;;;;;6183061;22;20024;-91
2023/05/14 00:46:13;;;;;;;22.40;11.20;;;10.10;78.20;;;;;;6209491;22;20135;-91
2023/05/14 00:49:19;;;;;;;24.07;12.30;;;10.00;78.20;;;;;;6214006;22;20024;-92
2023/05/14 00:52:20;;;;;;;22.60;12.33;;;10.00;78.40;;;;;;6177730;23;20456;-93
2023/05/14 00:58:56;;;;;;;24.00;13.48;;;10.00;78.40;;;;;;6126755;23;20020;-91
2023/05/14 01:05:15;;;;;;;27.33;14.17;;;10.00;78.40;;;;;;6136119;23;20044;-92
2023/05/14 01:08:28;;;;;;;25.03;14.40;;;10.00;78.70;;;;;;6119887;23;20024;-92
2023/05/14 01:11:54;;;;;;;28.00;14.20;;;10.00;78.60;;;;;;6066070;23;20055;-92
2023/05/14 01:17:57;;;;;;;25.67;14.07;;;10.00;78.60;;;;;;6220107;22;20049;-91
2023/05/14 01:20:39;;;;;;;30.97;14.17;;;10.00;78.50;;;;;;6234622;22;20122;-91
2023/05/14 01:23:05;;;;;;;26.03;14.60;;;10.00;78.40;;;;;;6215364;22;20110;-91
2023/05/14 01:26:35;;;;;;;26.60;13.43;;;10.00;78.40;;;;;;6230436;22;20023;-91
2023/05/14 01:36:56;;;;;;;31.67;15.27;;;10.00;78.60;;;;;;6001390;23;20033;-90
2023/05/14 01:39:45;;;;;;;24.87;14.10;;;10.00;78.50;;;;;;6130543;23;20024;-92
2023/05/14 01:42:25;;;;;;;27.30;14.70;;;10.00;78.60;;;;;;6153753;23;20020;-91
2023/05/14 01:45:15;;;;;;;26.40;14.83;;;10.00;78.50;;;;;;6181638;23;20088;-91
2023/05/14 01:47:43;;;;;;;26.13;14.43;;;9.90;78.60;;;;;;6126618;22;20029;-91
2023/05/14 01:50:38;;;;;;;27.97;14.47;;;9.80;78.50;;;;;;6238832;23;20043;-93
2023/05/14 01:53:47;;;;;;;26.00;14.03;;;9.80;78.60;;;;;;6210938;23;20439;-93
2023/05/14 01:56:34;;;;;;;25.33;13.07;;;9.70;78.50;;;;;;6212918;23;20670;-92
2023/05/14 01:59:02;;;;;;;24.13;13.90;;;9.70;78.60;;;;;;6209803;23;20060;-91
2023/05/14 02:01:33;;;;;;;27.23;14.33;;;9.70;78.60;;;;;;6213500;23;20012;-92
2023/05/14 02:07:18;;;;;;;27.37;14.43;;;9.70;78.80;;;;;;6190380;22;20028;-93
2023/05/14 02:09:58;;;;;;;26.83;14.83;;;9.70;78.70;;;;;;6211907;23;20046;-92
2023/05/14 02:13:08;;;;;;;;;;;;;;;;;;;;;
2023/05/14 02:16:03;;;;;;;26.77;14.20;;;9.80;79.00;;;;;;6185584;22;20020;-91
2023/05/14 02:19:03;;;;;;;26.50;14.70;;;9.80;78.90;;;;;;6147751;22;20521;-92
2023/05/14 02:22:05;;;;;;;;;;;;;;;;;;;;;
2023/05/14 02:24:42;;;;;;;33.50;16.90;;;9.80;78.90;;;;;;6150867;23;20029;-91
2023/05/14 02:27:33;;;;;;;36.23;18.20;;;9.90;79.10;;;;;;6162536;23;20459;-92
2023/05/14 02:30:17;;;;;;;37.00;18.80;;;9.90;79.10;;;;;;6109400;23;20021;-94
2023/05/14 02:33:15;;;;;;;;;;;;;;;;;;;;;
2023/05/14 02:40:10;;;;;;;38.70;18.13;;;10.00;79.30;;;;;;6088379;23;20037;-93
2023/05/14 02:46:30;;;;;;;39.92;18.95;;;10.00;79.20;;;;;;6209875;22;20023;-92
2023/05/14 02:48:58;;;;;;;42.47;19.10;;;10.00;79.40;;;;;;6204670;22;20473;-92
2023/05/14 02:51:59;;;;;;;;;;;;;;;;;;;;;
2023/05/14 02:54:59;;;;;;;48.73;19.23;;;10.00;79.50;;;;;;6237554;22;20026;-93
2023/05/14 02:57:43;;;;;;;41.23;19.90;;;10.00;79.60;;;;;;6024907;23;20093;-91
2023/05/14 03:06:48;;;;;;;45.57;20.33;;;10.00;79.50;;;;;;6226013;23;20020;-92
2023/05/14 03:09:19;;;;;;;39.23;20.77;;;10.00;79.40;;;;;;6148861;23;20028;-91
2023/05/14 03:12:13;;;;;;;;;;;;;;;;;;;;;
2023/05/14 03:15:11;;;;;;;44.13;19.20;;;9.90;79.40;;;;;;6164920;23;20031;-92
2023/05/14 03:18:24;;;;;;;32.90;14.45;;;9.90;79.60;;;;;;6136936;23;21062;-91
2023/05/14 03:20:58;;;;;;;37.90;18.10;;;9.90;79.60;;;;;;6105352;23;20106;-91
2023/05/14 03:23:24;;;;;;;44.97;18.40;;;9.90;79.30;;;;;;6160951;23;20043;-90
2023/05/14 03:26:08;;;;;;;;;;;;;;;;;;;;;
2023/05/14 03:29:03;;;;;;;33.77;16.97;;;9.80;79.30;;;;;;6175986;23;20112;-91
2023/05/14 03:32:08;;;;;;;;;;;;;;;;;;;;;
2023/05/14 03:35:40;;;;;;;;;;;;;;;;;;;;;
2023/05/14 03:42:50;;;;;;;;;;;;;;;;;;;;;
2023/05/14 03:56:44;;;;;;;;;;;;;;;;;;;;;
2023/05/14 04:06:44;;;;;;;;;;;9.60;79.70;;;;;;5856533;24;20021;-94
2023/05/14 04:09:12;;;;;;;33.80;14.97;;;9.60;80.00;;;;;;5964042;23;19947;-89
2023/05/14 04:11:41;;;;;;;37.90;15.50;;;9.60;79.70;;;;;;6181669;22;20023;-87
2023/05/14 04:14:06;;;;;;;29.53;14.70;;;9.60;79.60;;;;;;6213786;22;20058;-88
2023/05/14 04:16:38;;;;;;;32.37;13.93;;;9.70;79.60;;;;;;6185148;22;20026;-90
2023/05/14 04:19:07;;;;;;;35.72;15.57;;;9.70;79.60;;;;;;6197804;22;20477;-89
2023/05/14 04:21:35;;;;;;;35.87;14.47;;;9.70;79.70;;;;;;6164095;22;20027;-89
2023/05/14 04:24:01;;;;;;;31.70;14.93;;;9.80;79.70;;;;;;6190571;22;20022;-88
2023/05/14 04:26:27;;;;;;;39.00;15.73;;;9.80;79.70;;;;;;6213112;22;20039;-89
2023/05/14 04:28:55;;;;;;;33.23;15.13;;;9.80;79.70;;;;;;6213178;22;20564;-89
2023/05/14 04:31:24;;;;;;;45.13;16.53;;;9.80;79.80;;;;;;6192348;22;20168;-90
2023/05/14 04:33:52;;;;;;;38.70;17.00;;;9.80;79.80;;;;;;6189643;22;20027;-90
2023/05/14 04:36:21;;;;;;;41.15;18.60;;;9.80;80.00;;;;;;6190747;22;20019;-89
2023/05/14 04:38:50;;;;;;;47.03;18.80;;;9.80;80.00;;;;;;6186963;22;20638;-91
2023/05/14 04:41:16;;;;;;;40.83;19.03;;;9.90;80.00;;;;;;6216427;22;20199;-90
2023/05/14 04:43:46;;;;;;;42.77;19.17;;;10.00;80.10;;;;;;6190498;22;20029;-89
2023/05/14 04:46:12;;;;;;;43.57;18.93;;;10.00;80.00;;;;;;6215999;22;20231;-90
2023/05/14 04:48:41;;;;;;;45.67;18.47;;;10.00;80.10;;;;;;6211661;22;20024;-88
2023/05/14 04:51:07;;;;;;;53.47;18.67;;;10.10;80.20;;;;;;6192235;22;20095;-89
2023/05/14 04:53:36;;;;;;;38.90;17.37;;;10.10;80.20;;;;;;6218112;22;20039;-89
2023/05/14 04:56:13;;;;;;;33.80;16.00;;;10.20;80.20;;;;;;6217958;22;20027;-89
2023/05/14 04:58:39;;;;;;;32.83;15.30;;;10.20;80.30;;;;;;6198433;22;20046;-88
2023/05/14 05:01:11;;;;;;;40.03;16.43;;;10.30;80.30;;;;;;6195515;22;20026;-89
2023/05/14 05:03:40;;;;;;;43.00;16.10;;;10.40;80.30;;;;;;6217654;22;20453;-89
2023/05/14 05:06:09;;;;;;;38.43;16.20;;;10.50;80.30;;;;;;6167283;22;20022;-89
2023/05/14 05:08:36;;;;;;;44.70;15.43;;;10.50;80.40;;;;;;6211434;22;20130;-88
2023/05/14 05:11:01;;;;;;;36.23;16.50;;;10.60;80.40;;;;;;6218012;22;20023;-88
2023/05/14 05:13:31;;;;;;;37.80;16.23;;;10.60;80.40;;;;;;6192182;22;20019;-90
2023/05/14 05:15:57;;;;;;;42.00;15.57;;;10.70;80.30;;;;;;6218886;22;20102;-90
2023/05/14 05:18:25;;;;;;;42.53;16.47;;;10.70;80.40;;;;;;6194452;22;20154;-88
2023/05/14 05:21:00;;;;;;;41.60;17.60;;;10.80;80.50;;;;;;6216231;22;20073;-88
2023/05/14 05:23:26;;;;;;;37.50;16.20;;;10.80;80.50;;;;;;6189351;22;20395;-87
2023/05/14 05:25:52;;;;;;;37.30;15.43;;;10.90;80.50;;;;;;6190875;22;20054;-88
2023/05/14 05:28:20;;;;;;;34.87;15.30;;;10.90;80.50;;;;;;6192398;22;20458;-90
2023/05/14 05:30:46;;;;;;;32.60;13.77;;;11.00;80.50;;;;;;6218841;22;20019;-89
2023/05/14 05:33:13;;;;;;;37.47;13.53;;;11.10;80.50;;;;;;6199848;22;20031;-90
2023/05/14 05:35:43;;;;;;;31.00;12.67;;;11.10;80.50;;;;;;6218221;22;20149;-89
2023/05/14 05:38:09;;;;;;;30.60;12.23;;;11.20;80.20;;;;;;6189048;22;20011;-88
2023/05/14 05:40:37;;;;;;;31.57;12.43;;;11.20;80.30;;;;;;6217341;22;20624;-89
2023/05/14 05:43:03;;;;;;;29.83;11.80;;;11.30;80.30;;;;;;6190663;22;20035;-91
2023/05/14 05:45:31;;;;;;;34.20;11.40;;;11.40;80.30;;;;;;6218973;22;20016;-90
2023/05/14 05:48:05;;;;;;;30.42;11.70;;;11.50;80.30;;;;;;6185376;22;20027;-90
2023/05/14 05:50:31;;;;;;;29.73;11.10;;;11.70;80.50;;;;;;6171830;22;20022;-89
2023/05/14 05:53:02;;;;;;;30.13;11.25;;;11.80;80.40;;;;;;6161531;22;20052;-90
2023/05/14 05:55:28;;;;;;;22.67;11.15;;;11.90;80.20;;;;;;6217933;22;20020;-89
2023/05/14 05:57:57;;;;;;;26.60;11.30;;;12.10;80.10;;;;;;6194703;22;20096;-90
2023/05/14 06:00:26;;;;;;;25.05;11.40;;;12.20;79.90;;;;;;6194492;22;20077;-90
2023/05/14 06:02:51;;;;;;;30.25;11.15;;;12.30;79.80;;;;;;6190729;22;20030;-89
2023/05/14 06:05:18;;;;;;;28.30;10.57;;;12.40;79.70;;;;;;6193352;22;20102;-90
2023/05/14 06:07:46;;;;;;;18.42;10.27;;;12.50;79.60;;;;;;6146162;22;20034;-89
2023/05/14 06:10:12;;;;;;;20.70;10.48;;;12.50;79.60;;;;;;6219037;22;20083;-89
2023/05/14 06:12:39;;;;;;;27.10;9.98;;;12.50;79.60;;;;;;6217319;22;20035;-89
2023/05/14 06:15:06;;;;;;;23.17;9.32;;;12.70;79.40;;;;;;6216826;22;20476;-88
2023/05/14 06:17:34;;;;;;;23.92;9.48;;;12.70;79.30;;;;;;6209441;22;20034;-88
2023/05/14 06:20:04;;;;;;;22.00;9.05;;;12.80;79.20;;;;;;6191297;22;20122;-91
2023/05/14 06:22:36;;;;;;;17.35;9.60;;;12.90;79.00;;;;;;6174063;22;20047;-89
2023/05/14 06:25:05;;;;;;;22.02;10.25;;;12.90;78.90;;;;;;6216914;22;20070;-89
2023/05/14 06:27:31;;;;;;;24.35;9.90;;;12.90;78.90;;;;;;6195970;22;20127;-89
2023/05/14 06:29:57;;;;;;;19.98;9.40;;;13.00;78.80;;;;;;6216480;22;20391;-88
2023/05/14 06:32:25;;;;;;;22.15;9.07;;;13.00;78.70;;;;;;6192411;22;20030;-89
2023/05/14 06:34:51;;;;;;;20.55;8.43;;;13.00;78.60;;;;;;6168761;22;20525;-90
2023/05/14 06:37:19;;;;;;;21.33;8.23;;;13.10;78.50;;;;;;6186589;22;20055;-89
2023/05/14 06:39:48;;;;;;;19.92;9.57;;;13.10;78.30;;;;;;6244208;22;20073;-89
2023/05/14 06:42:27;;;;;;;23.33;9.43;;;13.10;78.20;;;;;;6191361;22;20045;-90
2023/05/14 06:44:56;;;;;;;19.10;9.52;;;13.10;78.10;;;;;;6217593;22;20019;-90
2023/05/14 06:47:21;;;;;;;18.77;9.52;;;13.00;78.00;;;;;;6206580;22;20020;-89
2023/05/14 06:50:00;;;;;;;22.23;9.02;;;13.00;78.00;;;;;;6218330;22;20077;-89
2023/05/14 06:52:26;;;;;;;19.38;9.57;;;13.00;77.90;;;;;;6176938;22;20162;-88
2023/05/14 06:55:04;;;;;;;21.60;9.38;;;13.10;77.80;;;;;;6191928;22;20016;-88
2023/05/14 06:57:41;;;;;;;21.05;9.50;;;13.10;77.70;;;;;;6207092;22;20334;-89
2023/05/14 07:00:08;;;;;;;22.15;9.63;;;13.10;77.50;;;;;;6217639;22;20154;-89
2023/05/14 07:02:33;;;;;;;18.27;9.60;;;13.10;77.60;;;;;;6214589;22;20016;-89
2023/05/14 07:04:59;;;;;;;21.45;10.68;;;13.20;77.70;;;;;;6167737;22;20026;-91
2023/05/14 07:07:28;;;;;;;22.67;9.80;;;13.30;77.50;;;;;;6209873;22;20051;-91
2023/05/14 07:09:54;;;;;;;20.48;9.00;;;13.30;77.60;;;;;;6217080;22;20051;-88
2023/05/14 07:12:19;;;;;;;20.50;9.18;;;13.40;77.80;;;;;;6191051;22;20026;-89
2023/05/14 07:14:55;;;;;;;21.80;8.65;;;13.50;77.70;;;;;;6217163;22;20023;-91
2023/05/14 07:17:42;;;;;;;19.95;8.45;;;13.50;77.60;;;;;;6161148;22;20014;-91
2023/05/14 07:20:09;;;;;;;25.33;8.55;;;13.60;77.70;;;;;;6165793;22;20054;-91
2023/05/14 07:22:34;;;;;;;22.77;8.88;;;13.70;77.70;;;;;;6216613;22;20015;-90
2023/05/14 07:25:01;;;;;;;19.20;9.00;;;13.70;77.50;;;;;;6192496;22;20012;-90
2023/05/14 07:27:27;;;;;;;27.88;9.30;;;13.70;77.50;;;;;;6200466;23;20023;-90
2023/05/14 07:29:54;;;;;;;14.55;9.05;;;13.70;77.50;;;;;;6187102;23;20016;-90
2023/05/14 07:32:23;;;;;;;24.83;9.15;;;13.70;77.20;;;;;;6211374;22;20052;-90
2023/05/14 07:34:52;;;;;;;22.42;8.88;;;13.60;77.10;;;;;;6212812;23;20055;-89
2023/05/14 07:37:18;;;;;;;18.90;8.50;;;13.60;77.20;;;;;;6178171;23;20031;-89
2023/05/14 07:39:52;;;;;;;19.40;8.75;;;13.60;77.20;;;;;;6212199;23;20024;-89
2023/05/14 07:42:18;;;;;;;23.35;8.88;;;13.60;77.20;;;;;;6174387;22;20012;-89
2023/05/14 07:44:47;;;;;;;23.98;9.07;;;13.70;77.20;;;;;;6213203;23;20024;-89
2023/05/14 07:47:13;;;;;;;24.23;9.55;;;13.70;77.10;;;;;;6163242;22;20028;-91
2023/05/14 07:49:39;;;;;;;20.67;9.82;;;13.90;77.20;;;;;;6212524;23;20389;-91
2023/05/14 07:52:05;;;;;;;21.40;10.23;;;13.90;77.30;;;;;;6194779;22;20481;-90
2023/05/14 07:57:44;;;;;;;18.13;9.00;;;14.10;77.00;;;;;;6198163;22;20019;-90
2023/05/14 08:00:14;;;;;;;27.25;9.57;;;14.10;76.80;;;;;;6212938;23;20095;-91
2023/05/14 08:02:41;;;;;;;26.70;9.10;;;14.20;76.80;;;;;;6225850;22;20020;-90
2023/05/14 08:05:07;;;;;;;22.90;8.95;;;14.10;76.70;;;;;;6212878;23;20048;-90
2023/05/14 08:07:34;;;;;;;26.23;8.90;;;14.10;76.80;;;;;;6177969;22;20022;-89
2023/05/14 08:10:23;;;;;;;23.02;8.90;;;14.10;76.70;;;;;;6212767;23;20020;-90
2023/05/14 08:12:49;;;;;;;18.65;8.18;;;14.20;76.60;;;;;;6165940;22;20036;-90
2023/05/14 08:15:15;;;;;;;24.67;8.45;;;14.20;76.40;;;;;;6212335;23;20089;-90
2023/05/14 08:17:48;;;;;;;20.17;8.38;;;14.20;76.50;;;;;;6205694;23;20028;-90
2023/05/14 08:20:17;;;;;;;23.25;8.07;;;14.20;76.50;;;;;;6211889;23;20403;-91
2023/05/14 08:22:46;;;;;;;19.80;7.97;;;14.20;76.00;;;;;;6162390;23;20473;-90
2023/05/14 08:25:20;;;;;;;18.95;7.85;;;14.20;76.10;;;;;;6159820;23;20035;-89
2023/05/14 08:27:49;;;;;;;18.15;8.45;;;14.10;76.10;;;;;;6200354;23;20024;-89
2023/05/14 08:30:18;;;;;;;21.60;8.32;;;14.20;76.10;;;;;;6159398;23;20033;-89
2023/05/14 08:32:44;;;;;;;18.38;8.18;;;14.30;76.20;;;;;;6182926;23;20486;-89
2023/05/14 08:35:12;;;;;;;17.33;7.88;;;14.20;75.90;;;;;;6183002;23;20044;-88
2023/05/14 08:37:52;;;;;;;18.42;8.10;;;14.20;75.90;;;;;;6181394;23;20028;-90
2023/05/14 08:40:21;;;;;;;21.42;8.75;;;14.30;76.10;;;;;;6161261;23;20523;-91
2023/05/14 08:43:24;;;;;;;18.85;8.27;;;14.40;76.10;;;;;;6110805;23;20024;-95
2023/05/14 08:46:21;;;;;;;19.75;8.27;;;14.40;75.50;;;;;;6108231;23;20033;-92
2023/05/14 08:49:12;;;;;;;18.73;7.93;;;14.50;75.70;;;;;;6161960;23;20253;-92
2023/05/14 08:51:48;;;;;;;22.27;8.52;;;14.50;75.40;;;;;;6092387;23;20689;-91
2023/05/14 08:54:27;;;;;;;21.60;8.70;;;14.60;75.50;;;;;;6147859;23;20123;-88
2023/05/14 08:57:10;;;;;;;19.38;8.82;;;14.60;75.30;;;;;;6155491;23;20032;-90
2023/05/14 09:00:07;;;;;;;21.20;8.30;;;14.70;75.50;;;;;;6120882;23;20020;-91
2023/05/14 09:02:34;;;;;;;24.73;8.85;;;14.80;75.20;;;;;;6181975;23;20028;-88
2023/05/14 09:05:16;;;;;;;25.33;8.93;;;14.90;75.30;;;;;;6180097;23;20024;-91
2023/05/14 09:08:05;;;;;;;22.20;7.82;;;14.90;75.30;;;;;;6139499;23;20028;-91
2023/05/14 09:10:34;;;;;;;20.90;8.63;;;14.90;75.40;;;;;;6163400;23;20462;-91
2023/05/14 09:13:20;;;;;;;20.77;9.25;;;14.80;75.30;;;;;;6155873;23;20021;-90
2023/05/14 09:16:43;;;;;;;;;;;;;;;;;;;;;
2023/05/14 09:19:22;;;;;;;20.73;9.40;;;14.90;75.40;;;;;;6154255;23;20059;-89
2023/05/14 09:22:11;;;;;;;21.30;8.25;;;15.00;75.40;;;;;;6157633;23;20032;-92
2023/05/14 09:24:46;;;;;;;17.88;9.05;;;15.00;75.20;;;;;;6178758;23;20028;-91
2023/05/14 09:27:21;;;;;;;19.75;8.65;;;15.00;75.10;;;;;;6174688;23;20032;-91
2023/05/14 09:30:19;;;;;;;22.65;8.85;;;15.00;75.10;;;;;;6182040;23;20025;-91
2023/05/14 09:32:57;;;;;;;28.88;8.95;;;15.20;75.10;;;;;;6178601;23;20016;-92
2023/05/14 09:35:24;;;;;;;17.92;8.20;;;15.30;75.10;;;;;;6207756;23;20020;-91
2023/05/14 09:37:54;;;;;;;18.35;9.00;;;15.30;75.00;;;;;;6175284;23;20087;-89
2023/05/14 09:41:04;;;;;;;;;;;;;;;;;;;;;
2023/05/14 09:43:48;;;;;;;20.05;9.23;;;15.50;75.00;;;;;;6203077;23;20032;-92
2023/05/14 09:46:21;;;;;;;16.63;9.20;;;15.60;74.70;;;;;;6181635;23;20016;-92
2023/05/14 09:48:50;;;;;;;22.23;9.27;;;15.80;74.80;;;;;;6163377;23;20031;-91
2023/05/14 09:52:04;;;;;;;;;;;;;;;;;;;;;
2023/05/14 09:55:16;;;;;;;19.88;9.57;;;15.80;74.30;;;;;;6144594;23;20028;-92
2023/05/14 09:58:45;;;;;;;;;;;;;;;;;;;;;
2023/05/14 10:05:12;;;;;;;18.35;8.65;;;16.40;73.90;;;;;;6087409;23;20101;-92
2023/05/14 10:08:33;;;;;;;27.55;9.10;;;16.40;73.80;;;;;;6194832;23;20025;-93
2023/05/14 10:12:18;;;;;;;21.15;8.93;;;16.50;73.80;;;;;;6184177;23;20069;-92
2023/05/14 10:15:16;;;;;;;19.13;9.43;;;16.50;73.80;;;;;;6024999;23;20082;-92
2023/05/14 12:52:00;;;;;;;14.27;7.43;;;19.50;63.90;;;;;;6215814;22;20047;-93
2023/05/14 12:54:34;;;;;;;13.10;7.95;;;19.50;64.40;;;;;;6185716;23;20016;-91
2023/05/14 12:57:03;;;;;;;11.55;6.50;;;19.50;65.00;;;;;;6153038;23;20020;-92
2023/05/14 12:59:28;;;;;;;10.02;6.60;;;19.60;64.80;;;;;;6159720;23;20020;-90
2023/05/14 13:01:59;;;;;;;16.55;9.38;;;19.60;65.00;;;;;;6162633;23;20078;-94
2023/05/14 13:04:40;;;;;;;16.08;9.80;;;19.70;65.70;;;;;;6164111;23;20020;-93
2023/05/14 13:07:54;;;;;;;16.50;8.27;;;19.70;66.20;;;;;;6169337;23;20067;-94
2023/05/14 13:11:04;;;;;;;16.17;10.00;;;19.80;66.90;;;;;;6137731;23;20023;-96
2023/05/14 13:14:00;;;;;;;18.52;10.48;;;19.90;67.70;;;;;;6164008;23;20016;-94
2023/05/14 13:17:35;;;;;;;17.60;11.00;;;19.90;68.10;;;;;;6159698;23;20226;-94
2023/05/14 13:20:18;;;;;;;18.10;10.27;;;19.90;68.20;;;;;;6205890;23;20090;-94
2023/05/14 13:22:47;;;;;;;18.83;11.85;;;19.90;68.40;;;;;;6145250;23;20036;-92
2023/05/14 13:25:13;;;;;;;21.27;11.70;;;19.90;68.50;;;;;;6175286;23;20016;-96
2023/05/14 13:27:41;;;;;;;17.02;10.70;;;19.70;68.60;;;;;;6135520;22;20029;-96
2023/05/14 13:30:10;;;;;;;18.35;12.15;;;19.70;68.70;;;;;;6209847;23;20094;-91
2023/05/14 13:32:37;;;;;;;18.75;12.43;;;19.70;68.90;;;;;;6189791;23;20031;-91
2023/05/14 13:36:42;;;;;;;;;;;;;;;;;;;;;
2023/05/14 13:39:00;;;;;;;20.83;12.68;;;19.60;69.00;;;;;;6147469;23;20089;-93
2023/05/14 13:45:20;;;;;;;21.67;13.02;;;19.30;69.60;;;;;;6126913;23;20029;-93
2023/05/14 13:47:48;;;;;;;21.27;12.13;;;19.30;69.80;;;;;;6101155;23;20033;-93
2023/05/14 13:50:22;;;;;;;17.95;12.32;;;19.30;69.80;;;;;;6192666;23;20012;-94
2023/05/14 13:53:12;;;;;;;24.35;13.13;;;19.20;69.70;;;;;;6158523;23;20319;-93
2023/05/14 13:55:55;;;;;;;;;;;;;;;;;;;;;
2023/05/14 13:58:25;;;;;;;17.48;13.13;;;19.20;69.80;;;;;;6252181;22;20028;-95
2023/05/14 14:00:53;;;;;;;20.45;13.02;;;19.10;69.70;;;;;;6230571;22;20099;-95
2023/05/14 14:03:23;;;;;;;23.20;13.57;;;19.20;70.10;;;;;;6181427;22;20024;-93
2023/05/14 14:05:52;;;;;;;16.55;13.68;;;19.20;70.30;;;;;;6222559;23;20442;-95
2023/05/14 14:08:18;;;;;;;19.73;13.10;;;19.20;70.00;;;;;;6224611;22;20019;-94
2023/05/14 14:10:44;;;;;;;19.13;13.50;;;19.20;69.80;;;;;;6225529;22;20019;-93
2023/05/14 14:13:15;;;;;;;20.13;13.18;;;19.10;69.70;;;;;;6223653;22;20020;-93
2023/05/14 14:15:44;;;;;;;17.73;12.68;;;19.00;69.50;;;;;;6238417;22;20016;-94
2023/05/14 14:19:27;;;;;;;;;;;;;;;;;;;;;
2023/05/14 14:25:56;;;;;;;20.10;14.50;;;19.10;69.90;;;;;;6104461;23;20021;-94
2023/05/14 14:29:22;;;;;;;;;;;;;;;;;;;;;
2023/05/14 14:32:14;;;;;;;22.48;15.52;;;19.10;69.80;;;;;;6158275;23;20027;-92
2023/05/14 14:34:46;;;;;;;21.88;13.98;;;19.10;69.90;;;;;;6197895;22;20019;-88
2023/05/14 14:37:15;;;;;;;22.55;15.18;;;19.00;70.00;;;;;;6221079;22;20027;-89
2023/05/14 14:40:19;;;;;;;19.65;13.95;;;19.00;70.00;;;;;;6226801;22;20015;-90
2023/05/14 14:42:45;;;;;;;20.58;14.45;;;19.00;70.00;;;;;;6207559;22;20117;-89
2023/05/14 14:45:11;;;;;;;19.50;14.13;;;19.00;70.10;;;;;;6161033;23;20565;-91
2023/05/14 14:47:37;;;;;;;20.77;13.90;;;19.00;70.20;;;;;;6206875;22;20024;-89
2023/05/14 14:50:06;;;;;;;22.38;16.42;;;19.00;70.30;;;;;;6211502;23;20012;-88
2023/05/14 14:52:34;;;;;;;18.52;14.75;;;19.00;70.20;;;;;;6185545;22;20023;-91
2023/05/14 14:55:00;;;;;;;23.85;15.07;;;18.90;70.20;;;;;;6241095;22;20106;-90
2023/05/14 14:57:26;;;;;;;21.05;15.40;;;18.80;70.20;;;;;;6234122;22;20158;-92
2023/05/14 14:59:51;;;;;;;22.33;15.18;;;18.70;70.10;;;;;;6242072;22;20315;-88
2023/05/14 15:02:17;;;;;;;21.17;15.25;;;18.70;70.20;;;;;;6185550;22;20024;-91
2023/05/14 15:04:43;;;;;;;24.40;16.48;;;18.60;70.10;;;;;;6217227;22;20026;-91
2023/05/14 15:07:09;;;;;;;22.10;15.60;;;18.60;70.10;;;;;;6165459;22;20256;-89
2023/05/14 15:09:35;;;;;;;21.38;15.38;;;18.50;70.20;;;;;;6210419;22;20465;-90
2023/05/14 15:12:09;;;;;;;19.35;15.40;;;18.50;70.10;;;;;;6212474;23;20020;-90
2023/05/14 15:14:35;;;;;;;20.13;15.90;;;18.50;69.90;;;;;;6213198;22;20032;-89
2023/05/14 15:17:01;;;;;;;19.58;15.90;;;18.50;70.00;;;;;;6205737;23;20335;-90
2023/05/14 15:19:29;;;;;;;26.98;16.38;;;18.40;69.80;;;;;;6218330;22;20027;-90
2023/05/14 15:21:57;;;;;;;18.37;15.87;;;18.40;69.50;;;;;;6218193;22;20026;-91
2023/05/14 15:24:24;;;;;;;22.25;15.48;;;18.30;69.50;;;;;;6215896;22;20016;-91
2023/05/14 15:26:53;;;;;;;24.13;16.38;;;18.20;69.60;;;;;;6182472;23;20012;-91
2023/05/14 15:29:19;;;;;;;20.25;15.43;;;18.10;69.50;;;;;;6204223;22;20046;-91
2023/05/14 15:31:45;;;;;;;19.00;15.77;;;18.00;69.60;;;;;;6213667;23;20423;-92
2023/05/14 15:34:14;;;;;;;25.15;16.35;;;18.00;69.70;;;;;;6187297;23;20020;-91
2023/05/14 15:36:43;;;;;;;21.17;14.95;;;17.90;69.80;;;;;;6213070;22;20022;-94
2023/05/14 15:39:17;;;;;;;23.42;16.13;;;17.80;69.90;;;;;;6188054;23;20091;-94
2023/05/14 15:41:44;;;;;;;23.30;17.50;;;17.80;70.10;;;;;;6211420;23;20525;-90
2023/05/14 15:44:12;;;;;;;22.40;17.02;;;17.80;69.90;;;;;;6224609;22;20504;-90
2023/05/14 15:46:41;;;;;;;20.77;16.98;;;17.70;69.80;;;;;;6187817;22;20020;-93
2023/05/14 15:49:15;;;;;;;25.17;16.63;;;17.50;69.90;;;;;;6189144;23;20082;-90
2023/05/14 15:51:41;;;;;;;22.52;17.42;;;17.50;70.10;;;;;;6243422;22;20015;-92
2023/05/14 15:54:07;;;;;;;23.23;17.40;;;17.40;70.20;;;;;;6218898;22;20582;-90
2023/05/14 15:56:42;;;;;;;26.27;18.27;;;17.40;70.40;;;;;;6188344;22;20017;-96
2023/05/14 15:59:13;;;;;;;21.17;18.10;;;17.30;70.20;;;;;;6222387;22;20027;-92
2023/05/14 16:01:39;;;;;;;22.40;17.63;;;17.20;70.20;;;;;;6215731;22;20026;-90
2023/05/14 16:04:05;;;;;;;21.83;17.80;;;17.20;70.20;;;;;;6210224;23;20032;-90
2023/05/14 16:09:44;;;;;;;22.85;18.15;;;17.00;70.00;;;;;;6092000;23;20205;-91
2023/05/14 16:12:13;;;;;;;23.13;19.17;;;16.80;70.00;;;;;;6042209;23;20093;-92
2023/05/14 16:14:56;;;;;;;23.77;18.60;;;16.80;69.90;;;;;;6211885;22;20572;-89
2023/05/14 16:17:22;;;;;;;21.38;18.92;;;16.70;69.50;;;;;;6177694;22;20020;-92
2023/05/14 16:19:51;;;;;;;22.70;18.52;;;16.60;69.30;;;;;;6209082;23;20027;-95
2023/05/14 16:22:23;;;;;;;22.55;18.98;;;16.50;68.90;;;;;;6199609;22;20016;-90
2023/05/14 16:24:51;;;;;;;24.42;19.38;;;16.50;69.00;;;;;;6257926;22;20774;-94
2023/05/14 16:27:22;;;;;;;;;;;16.40;69.10;;;;;;6207873;22;20020;-94
2023/05/14 16:29:48;;;;;;;26.10;20.35;;;16.20;69.00;;;;;;6218451;22;20280;-91
2023/05/14 16:32:14;;;;;;;28.00;20.92;;;16.10;69.30;;;;;;6199702;22;20024;-91
2023/05/14 16:34:40;;;;;;;28.35;23.15;;;16.00;69.40;;;;;;6238815;22;20077;-91
2023/05/14 16:37:06;;;;;;;30.35;25.05;;;15.80;69.80;;;;;;6212757;22;20481;-93
2023/05/14 16:40:09;;;;;;;32.03;25.33;;;15.60;70.10;;;;;;6217915;22;20022;-95
2023/05/14 16:42:40;;;;;;;33.72;27.45;;;15.40;70.40;;;;;;6216345;22;20051;-91
2023/05/14 16:45:48;;;;;;;31.90;26.67;;;15.20;70.80;;;;;;6237771;23;20102;-94
2023/05/14 16:48:22;;;;;;;34.17;28.50;;;15.00;71.60;;;;;;6206551;23;20028;-92
2023/05/14 16:50:55;;;;;;;33.13;27.58;;;14.80;71.50;;;;;;6215885;23;20113;-92
2023/05/14 17:15:11;;;;;;;33.90;26.60;;;13.70;72.60;;;;;;5970510;24;20741;-96
2023/05/14 17:17:48;;;;;;;33.50;27.85;;;13.40;73.30;;;;;;5930066;24;20021;-94
2023/05/14 17:20:15;;;;;;;33.17;26.48;;;13.30;73.20;;;;;;5955712;24;20105;-94
2023/05/14 17:27:40;;;;;;;35.30;27.92;;;13.00;73.80;;;;;;4134712;27;24383224;-92
2023/05/14 17:30:14;;;;;;;38.35;29.25;;;12.90;73.70;;;;;;4967946;28;20558;-93
2023/05/14 17:32:42;;;;;;;39.38;29.20;;;12.80;73.90;;;;;;4973998;28;20045;-92
2023/05/14 17:35:44;;;;;;;37.75;29.58;;;12.70;74.10;;;;;;5006763;28;20056;-93
2023/05/14 17:38:58;;;;;;;35.15;28.15;;;12.50;74.20;;;;;;4940079;28;20067;-93
2023/05/14 17:41:40;;;;;;;35.25;27.55;;;12.50;74.60;;;;;;4928546;28;20079;-93
2023/05/14 17:44:07;;;;;;;37.15;28.00;;;12.50;74.40;;;;;;4951557;28;20109;-91
2023/05/14 17:46:51;;;;;;;38.83;28.35;;;12.50;74.50;;;;;;4952277;28;20085;-92
2023/05/14 17:49:30;;;;;;;39.25;29.73;;;12.50;74.60;;;;;;4962915;28;20068;-92
2023/05/14 17:52:11;;;;;;;41.70;30.88;;;12.40;74.70;;;;;;4941876;28;20051;-92
2023/05/14 17:54:49;;;;;;;41.13;31.60;;;12.30;74.60;;;;;;4967625;28;20054;-93
2023/05/14 17:57:41;;;;;;;41.08;32.30;;;12.30;74.80;;;;;;4987576;28;20169;-92
2023/05/14 18:00:27;;;;;;;46.80;33.63;;;12.20;75.00;;;;;;5015256;28;20049;-95
2023/05/14 18:03:25;;;;;;;47.92;35.15;;;12.20;75.20;;;;;;4991222;28;20061;-96
2023/05/14 18:06:01;;;;;;;49.70;37.17;;;12.10;75.60;;;;;;4986621;28;20073;-93
2023/05/14 18:08:47;;;;;;;47.88;35.75;;;12.00;75.40;;;;;;4975825;28;20054;-92